WA1EMA Weather Reports


Display with metric or nautical units.
time (UTC)temp
F
wind
direction
speed
MPH
gust
MPH
rain 1hr
in
rain 24hr
in
rain mn
in
humidity
%
barometer
mb
20210921064538 51 84 1.0 2.0 0.01 0.01 0.01 94 1029.2
20210921063130 51 84 0.0 2.0 0.00 0.00 0.00 94 1029.3
20210921061546 51 84 0.0 2.0 0.00 0.00 0.00 93 1029.4
20210921060017 52 84 0.0 2.0 0.00 0.00 0.00 93 1029.4
20210921054658 52 84 0.0 2.0 0.00 0.00 0.00 93 1029.6
20210921053228 53 84 0.0 2.0 0.00 0.00 0.00 93 1029.8
20210921051619 53 84 0.0 1.0 0.00 0.00 0.00 93 1029.7
20210921050135 53 84 0.0 0.0 0.00 0.00 0.00 93 1029.8
20210921044640 53 84 0.0 1.0 0.00 0.00 0.00 93 1029.7
20210921043119 53 84 0.0 2.0 0.00 0.00 0.00 93 1029.6
20210921041619 53 84 0.0 2.0 0.00 0.00 0.00 92 1029.6
20210921040041 53 84 0.0 0.0 0.00 0.00 0.00 92 1029.7
20210921034608 54 84 0.0 0.0 0.00 0.00 0.00 92 1029.7
20210921033104 54 84 0.0 1.0 0.00 0.00 0.00 92 1029.5
20210921031636 54 84 0.0 0.0 0.00 0.00 0.00 92 1029.6
20210921030123 55 84 0.0 1.0 0.00 0.00 0.00 91 1029.6
20210921024534 55 84 0.0 0.0 0.00 0.00 0.00 91 1029.6
20210921023157 56 84 0.0 1.0 0.00 0.00 0.00 91 1029.6
20210921021525 56 84 0.0 0.0 0.00 0.00 0.00 90 1029.4
20210921020047 57 84 0.0 0.0 0.00 0.00 0.00 89 1029.5
20210921014522 57 84 0.0 1.0 0.00 0.00 0.00 89 1029.5
20210921013019 58 84 0.0 4.0 0.00 0.00 0.00 88 1029.5
20210921011529 58 88 1.0 4.0 0.00 0.00 0.00 88 1029.5
20210921010035 58 88 1.0 4.0 0.00 0.00 0.00 88 1029.5
20210921004511 58 95 0.0 2.0 0.00 0.00 0.00 87 1029.5
20210921003015 59 95 0.0 2.0 0.00 0.00 0.00 86 1029.5
20210921001508 59 95 0.0 3.0 0.00 0.00 0.00 84 1029.3
20210921000012 60 95 1.0 4.0 0.00 0.00 0.00 83 1029.3
20210920234502 60 95 1.0 4.0 0.00 0.00 0.00 82 1029.0
20210920233112 61 93 2.0 4.0 0.00 0.00 0.00 81 1028.9
20210920231626 62 99 1.0 4.0 0.00 0.00 0.00 78 1028.8
20210920230054 63 90 1.0 3.0 0.00 0.00 0.00 77 1028.8
20210920224612 64 89 1.0 3.0 0.00 0.00 0.00 74 1028.6
20210920223030 65 89 1.0 6.0 0.00 0.00 0.00 71 1028.5
20210920221538 66 86 1.0 3.0 0.00 0.00 0.00 70 1028.5
20210920220048 67 107 0.0 6.0 0.00 0.00 0.00 67 1028.4
20210920214542 69 96 2.0 8.0 0.00 0.00 0.00 64 1028.3
20210920213057 69 91 1.0 7.0 0.00 0.00 0.00 64 1028.3
20210920211613 69 90 2.0 6.0 0.00 0.00 0.00 63 1028.2
20210920210034 70 87 3.0 9.0 0.00 0.00 0.00 62 1028.0
20210920204553 71 180 1.0 8.0 0.00 0.00 0.00 59 1028.0
20210920203103 73 242 2.0 5.0 0.00 0.00 0.00 57 1028.1
20210920201559 73 138 1.0 6.0 0.00 0.00 0.00 55 1028.1
20210920200100 74 161 2.0 4.0 0.00 0.00 0.00 51 1028.2
20210920194544 74 84 1.0 10.0 0.00 0.00 0.00 51 1028.1
20210920193019 74 165 1.0 9.0 0.00 0.00 0.00 51 1028.1
20210920191519 75 103 2.0 7.0 0.00 0.00 0.00 50 1028.2
20210920190058 74 140 3.0 9.0 0.00 0.00 0.00 49 1028.2
20210920184529 75 194 3.0 7.0 0.00 0.00 0.00 48 1028.2
20210920183054 74 102 1.0 8.0 0.00 0.00 0.00 51 1028.3
20210920181532 75 115 3.0 8.0 0.00 0.00 0.00 50 1028.2
20210920180104 74 97 2.0 6.0 0.00 0.00 0.00 53 1028.1
20210920174507 74 150 3.0 9.0 0.00 0.00 0.00 53 1028.2
20210920173007 75 84 3.0 9.0 0.00 0.00 0.00 52 1028.3
20210920171507 75 111 1.0 6.0 0.00 0.00 0.00 55 1028.3
20210920170133 74 63 3.0 8.0 0.00 0.00 0.00 56 1028.4
20210920164602 72 50 2.0 6.0 0.00 0.00 0.00 59 1028.5
20210920163107 72 57 0.0 10.0 0.00 0.00 0.00 60 1028.5
20210920161620 74 96 2.0 4.0 0.00 0.00 0.00 58 1028.5
20210920160056 73 96 3.0 9.0 0.00 0.00 0.00 60 1028.5
20210920154609 72 90 1.0 6.0 0.00 0.00 0.00 61 1028.7
20210920153116 72 86 4.0 9.0 0.00 0.00 0.00 60 1028.7
20210920151537 71 5 1.0 4.0 0.00 0.00 0.00 62 1028.7
20210920150059 71 81 2.0 5.0 0.00 0.00 0.00 62 1028.7
20210920144636 70 97 1.0 8.0 0.00 0.00 0.00 64 1028.8
20210920143023 69 111 1.0 9.0 0.00 0.00 0.00 67 1028.6
20210920141606 69 67 2.0 6.0 0.00 0.00 0.00 72 1028.6
20210920140020 67 40 2.0 9.0 0.00 0.00 0.00 76 1028.5
20210920134541 66 86 1.0 10.0 0.00 0.00 0.00 83 1028.5
20210920133007 64 57 4.0 10.0 0.00 0.00 0.00 88 1028.4
20210920131647 61 72 2.0 4.0 0.00 0.00 0.00 94 1028.3
20210920130209 59 28 1.0 4.0 0.00 0.00 0.00 96 1028.1
20210920124627 58 53 1.0 3.0 0.00 0.00 0.00 96 1027.9
20210920123141 57 52 1.0 3.0 0.00 0.00 0.00 96 1027.8
20210920121544 55 61 1.0 3.0 0.00 0.00 0.00 96 1027.7
20210920120028 54 93 0.0 2.0 0.00 0.00 0.00 96 1027.5
20210920114535 53 93 0.0 1.0 0.00 0.01 0.00 96 1027.3
20210920113045 52 94 0.0 0.0 0.00 0.01 0.00 96 1027.2
20210920111521 52 94 0.0 1.0 0.00 0.01 0.00 95 1026.9
20210920110023 52 93 0.0 1.0 0.00 0.01 0.00 96 1026.7
20210920104522 51 93 0.0 2.0 0.00 0.01 0.00 95 1026.4
20210920103014 51 93 0.0 1.0 0.00 0.01 0.00 95 1026.3
20210920101535 51 94 0.0 2.0 0.00 0.01 0.00 95 1026.0
20210920100022 51 94 0.0 0.0 0.00 0.01 0.00 95 1025.9
20210920094507 51 94 0.0 2.0 0.00 0.01 0.00 95 1025.6
20210920093005 51 93 0.0 0.0 0.00 0.01 0.00 95 1025.4
20210920091803 50 93 0.0 1.0 0.00 0.01 0.00 95 1025.3
20210920090156 51 93 0.0 0.0 0.00 0.01 0.00 95 1025.2
20210920084719 50 93 0.0 0.0 0.00 0.01 0.00 95 1025.2
20210920083256 51 93 0.0 2.0 0.00 0.01 0.00 94 1025.1
20210920081658 51 94 0.0 0.0 0.00 0.01 0.00 94 1025.0
20210920080055 51 93 0.0 0.0 0.00 0.01 0.00 94 1025.0
20210920074553 51 94 0.0 0.0 0.00 0.01 0.00 94 1024.9
20210920073223 51 93 0.0 1.0 0.00 0.01 0.00 94 1024.8
20210920071622 51 93 0.0 1.0 0.00 0.01 0.00 94 1024.8
20210920070143 51 93 1.0 2.0 0.00 0.01 0.00 94 1024.9